createdAt,value
2023-11-01T00:10:37.849Z,35.23
2023-11-01T00:25:39.993Z,37.30
2023-11-01T00:40:41.875Z,35.20
2023-11-01T00:55:43.772Z,29.63
2023-11-01T01:10:45.551Z,31.07
2023-11-01T01:25:47.233Z,30.67
2023-11-01T01:40:48.975Z,32.37
2023-11-01T01:55:50.795Z,31.23
2023-11-01T02:10:53.113Z,28.93
2023-11-01T02:25:57.063Z,31.30
2023-11-01T02:40:58.741Z,29.87
2023-11-01T02:56:00.973Z,29.37
2023-11-01T03:11:02.723Z,29.40
2023-11-01T03:26:04.680Z,28.67
2023-11-01T03:41:06.399Z,28.37
2023-11-01T03:56:09.099Z,25.87
2023-11-01T04:11:10.791Z,25.57
2023-11-01T04:26:12.502Z,25.33
2023-11-01T04:41:14.177Z,22.80
2023-11-01T04:56:16.004Z,22.23
2023-11-01T05:11:17.781Z,23.70
2023-11-01T05:26:19.634Z,20.83
2023-11-01T05:41:21.571Z,20.00
2023-11-01T05:56:24.564Z,23.37
2023-11-01T06:11:26.322Z,22.83
2023-11-01T06:26:28.217Z,23.20
2023-11-01T06:41:30.028Z,27.57
2023-11-01T06:56:32.017Z,25.00
2023-11-01T07:11:33.854Z,27.90
2023-11-01T07:26:36.464Z,30.13
2023-11-01T07:41:39.928Z,33.80
2023-11-01T07:56:41.745Z,31.90
2023-11-01T08:11:43.568Z,32.43
2023-11-01T08:26:45.263Z,32.60
2023-11-01T08:41:47.100Z,31.57
2023-11-01T08:56:48.981Z,31.40
2023-11-01T09:11:50.890Z,30.23
2023-11-01T09:26:52.603Z,32.10
2023-11-01T09:42:21.829Z,31.13
2023-11-01T09:57:25.896Z,32.40
2023-11-01T10:12:27.658Z,32.37
2023-11-01T10:27:29.399Z,32.60
2023-11-01T10:42:32.538Z,32.07
2023-11-01T10:57:35.205Z,34.23
2023-11-01T11:12:37.625Z,36.20
2023-11-01T11:27:52.507Z,39.37
2023-11-01T11:42:54.528Z,41.10
2023-11-01T12:12:58.660Z,38.23
2023-11-01T12:28:00.359Z,40.80
2023-11-01T12:43:09.936Z,38.17
2023-11-01T12:58:12.481Z,35.97
2023-11-01T13:13:14.129Z,41.90
2023-11-01T13:28:15.895Z,37.80
2023-11-01T13:43:17.804Z,36.13
2023-11-01T13:58:20.098Z,33.87
2023-11-01T14:13:21.892Z,33.10
2023-11-01T14:28:23.720Z,30.13
2023-11-01T14:43:26.527Z,26.80
2023-11-01T14:58:28.294Z,24.37
2023-11-01T15:13:30.056Z,26.93
2023-11-01T15:28:31.854Z,22.40
2023-11-01T15:43:33.643Z,24.80
2023-11-01T15:58:44.602Z,22.50
2023-11-01T16:13:48.031Z,22.17
2023-11-01T16:28:52.345Z,22.93
2023-11-01T16:43:54.090Z,23.60
2023-11-01T16:58:55.842Z,21.37
2023-11-01T17:13:58.807Z,21.90
2023-11-01T17:29:01.369Z,20.63
2023-11-01T17:44:03.334Z,19.90
2023-11-01T17:59:05.104Z,19.40
2023-11-01T18:14:06.962Z,19.67
2023-11-01T18:29:10.431Z,19.10
2023-11-01T18:44:48.322Z,17.00
2023-11-01T18:59:50.105Z,19.00
2023-11-01T19:14:52.084Z,16.60
2023-11-01T19:29:53.881Z,17.77
2023-11-01T19:44:55.630Z,16.33
2023-11-01T19:59:57.387Z,16.70
2023-11-01T20:14:59.501Z,16.67
2023-11-01T20:30:01.312Z,18.07
2023-11-01T20:45:03.978Z,18.87
2023-11-01T21:00:06.485Z,19.10
2023-11-01T21:15:09.659Z,19.87
2023-11-01T21:30:12.228Z,18.13
2023-11-01T21:45:17.029Z,18.50
2023-11-01T22:00:20.233Z,19.07
2023-11-01T22:15:26.658Z,18.47
2023-11-01T22:30:29.679Z,17.97
2023-11-01T22:45:32.497Z,19.33
2023-11-01T23:00:35.794Z,17.33
2023-11-01T23:15:37.594Z,16.30
2023-11-01T23:30:51.874Z,17.23
2023-11-01T23:46:17.433Z,17.97
